Terminal Aerodrome Forecast
Issued by NWS New Orleans/Baton Rouge, LA

Home | Current Version | Previous Version | Text Only | Print | Product List | Glossary On
Versions: 1 2 3 4 5 6 7 8 9 10 11 12 13 14 15
000
FTUS44 KLIX 281700 RRA
TAFBTR
TAF
KBTR 281748Z 2818/2918 35006KT P6SM OVC007
     FM290000 36005KT 6SM BR VCSH OVC008
     FM290600 35005KT 4SM BR BKN008=

USA.gov is the U.S. government's official web portal to all federal, state and local government web resources and services.